NSZ3528 EKCH-EGNT
Flight info
| Callsign | NSZ3528 |
|---|---|
| Flight time | 1h 42m |
| Altitude | 36000 |
| Route | ODDON P60 NAVIK P619 EVAKI M869 GOREV DCT SURAT DCT CUTEL DCT GOMOT DCT MADAD DCT NATEB |
| Aircraft | B738/M-SDE2E3FGHIRWXY/LB1 |
Departure
| Time | 2026-05-07 15:45 |
|---|---|
| Airport | Copenhagen Kastrup Airport (EKCH) |
Arrival
| Time | 2026-05-07 17:28 |
|---|---|
| Airport | Newcastle International Airport (EGNT) |
| Time | Latitude | Longitude | Altitude | Speed | Heading |
|---|---|---|---|---|---|
| 2026-05-07 14:58 | 55.62557 | 12.64873 | 23 ft | 0 kts | 89° |
| 2026-05-07 15:33 | 55.62557 | 12.64846 | 24 ft | 4 kts | 89° |
| 2026-05-07 15:33 | 55.62556 | 12.64808 | 25 ft | 4 kts | 102° |
| 2026-05-07 15:33 | 55.62567 | 12.64774 | 26 ft | 4 kts | 161° |
| 2026-05-07 15:33 | 55.62569 | 12.64770 | 25 ft | 4 kts | 179° |
| 2026-05-07 15:34 | 55.62542 | 12.64771 | 25 ft | 4 kts | 179° |
| 2026-05-07 15:34 | 55.62521 | 12.64772 | 25 ft | 4 kts | 179° |
| 2026-05-07 15:34 | 55.62502 | 12.64772 | 25 ft | 0 kts | 179° |
| 2026-05-07 15:38 | 55.62493 | 12.64773 | 23 ft | 6 kts | 179° |
| 2026-05-07 15:38 | 55.62418 | 12.64781 | 24 ft | 12 kts | 176° |
| 2026-05-07 15:38 | 55.62341 | 12.64785 | 24 ft | 11 kts | 179° |
| 2026-05-07 15:39 | 55.62267 | 12.64790 | 26 ft | 11 kts | 175° |
| 2026-05-07 15:39 | 55.62200 | 12.64758 | 26 ft | 10 kts | 215° |
| 2026-05-07 15:39 | 55.62141 | 12.64690 | 27 ft | 10 kts | 212° |
| 2026-05-07 15:39 | 55.62068 | 12.64606 | 24 ft | 16 kts | 215° |
| 2026-05-07 15:40 | 55.61966 | 12.64508 | 23 ft | 17 kts | 194° |
| 2026-05-07 15:40 | 55.61890 | 12.64511 | 25 ft | 16 kts | 162° |
| 2026-05-07 15:40 | 55.61783 | 12.64545 | 23 ft | 16 kts | 170° |
| 2026-05-07 15:40 | 55.61678 | 12.64564 | 25 ft | 15 kts | 200° |
| 2026-05-07 15:41 | 55.61592 | 12.64467 | 23 ft | 14 kts | 213° |
| 2026-05-07 15:41 | 55.61507 | 12.64370 | 25 ft | 15 kts | 213° |
| 2026-05-07 15:41 | 55.61412 | 12.64261 | 24 ft | 18 kts | 213° |
| 2026-05-07 15:41 | 55.61299 | 12.64130 | 24 ft | 20 kts | 213° |
| 2026-05-07 15:42 | 55.61186 | 12.64000 | 23 ft | 19 kts | 213° |
| 2026-05-07 15:42 | 55.61075 | 12.63873 | 24 ft | 19 kts | 212° |
| 2026-05-07 15:42 | 55.60968 | 12.63750 | 23 ft | 18 kts | 213° |
| 2026-05-07 15:42 | 55.60866 | 12.63632 | 23 ft | 17 kts | 213° |
| 2026-05-07 15:43 | 55.60792 | 12.63597 | 25 ft | 10 kts | 156° |
| 2026-05-07 15:43 | 55.60745 | 12.63682 | 26 ft | 10 kts | 130° |
| 2026-05-07 15:43 | 55.60703 | 12.63771 | 23 ft | 9 kts | 129° |
| 2026-05-07 15:43 | 55.60673 | 12.63856 | 25 ft | 7 kts | 86° |
| 2026-05-07 15:44 | 55.60684 | 12.63880 | 25 ft | 0 kts | 40° |
| 2026-05-07 15:44 | 55.60689 | 12.63888 | 29 ft | 5 kts | 40° |
| 2026-05-07 15:44 | 55.60786 | 12.64033 | 26 ft | 47 kts | 40° |
| 2026-05-07 15:45 | 55.61211 | 12.64695 | 23 ft | 114 kts | 41° |
| 2026-05-07 15:45 | 55.61933 | 12.65827 | 130 ft | 155 kts | 41° |
| 2026-05-07 15:45 | 55.62707 | 12.67033 | 990 ft | 143 kts | 39° |
| 2026-05-07 15:45 | 55.63516 | 12.68231 | 1428 ft | 162 kts | 39° |
| 2026-05-07 15:46 | 55.65517 | 12.71091 | 2066 ft | 206 kts | 29° |
| 2026-05-07 15:46 | 55.66926 | 12.71459 | 2431 ft | 213 kts | 342° |
| 2026-05-07 15:46 | 55.68173 | 12.70076 | 3024 ft | 214 kts | 326° |
| 2026-05-07 15:47 | 55.69582 | 12.69404 | 3494 ft | 219 kts | 4° |
| 2026-05-07 15:47 | 55.71123 | 12.69567 | 4084 ft | 222 kts | 360° |
| 2026-05-07 15:47 | 55.72672 | 12.69530 | 4681 ft | 222 kts | 357° |
| 2026-05-07 15:47 | 55.74224 | 12.69425 | 5240 ft | 226 kts | 356° |
| 2026-05-07 15:48 | 55.75792 | 12.69287 | 5847 ft | 227 kts | 356° |
| 2026-05-07 15:48 | 55.77391 | 12.69134 | 6365 ft | 233 kts | 356° |
| 2026-05-07 15:48 | 55.78997 | 12.68971 | 6905 ft | 236 kts | 356° |
| 2026-05-07 15:48 | 55.80663 | 12.68793 | 7520 ft | 236 kts | 355° |
| 2026-05-07 15:49 | 55.82206 | 12.67830 | 8073 ft | 242 kts | 323° |
| 2026-05-07 15:49 | 55.83240 | 12.65462 | 8706 ft | 246 kts | 299° |
| 2026-05-07 15:49 | 55.83906 | 12.62738 | 9232 ft | 252 kts | 294° |
| 2026-05-07 15:49 | 55.84539 | 12.59792 | 9804 ft | 257 kts | 293° |
| 2026-05-07 15:50 | 55.85172 | 12.56810 | 10411 ft | 258 kts | 292° |
| 2026-05-07 15:50 | 55.85812 | 12.53823 | 11048 ft | 259 kts | 293° |
| 2026-05-07 15:50 | 55.86463 | 12.50821 | 11649 ft | 260 kts | 292° |
| 2026-05-07 15:50 | 55.87122 | 12.47818 | 12309 ft | 260 kts | 292° |
| 2026-05-07 15:51 | 55.87779 | 12.44841 | 12970 ft | 261 kts | 291° |
| 2026-05-07 15:51 | 55.88445 | 12.41824 | 13650 ft | 262 kts | 291° |
| 2026-05-07 15:51 | 55.89114 | 12.38795 | 14096 ft | 271 kts | 291° |
| 2026-05-07 15:51 | 55.89764 | 12.35604 | 14560 ft | 276 kts | 282° |
| 2026-05-07 15:52 | 55.89713 | 12.32194 | 15088 ft | 280 kts | 255° |
| 2026-05-07 15:52 | 55.88940 | 12.29011 | 15703 ft | 281 kts | 243° |
| 2026-05-07 15:52 | 55.88006 | 12.25963 | 16345 ft | 281 kts | 242° |
| 2026-05-07 15:52 | 55.87042 | 12.22911 | 16926 ft | 284 kts | 242° |
| 2026-05-07 15:53 | 55.86070 | 12.19845 | 17546 ft | 284 kts | 242° |
| 2026-05-07 15:53 | 55.85098 | 12.16763 | 18058 ft | 289 kts | 242° |
| 2026-05-07 15:53 | 55.84114 | 12.13628 | 18603 ft | 291 kts | 242° |
| 2026-05-07 15:53 | 55.83121 | 12.10458 | 19064 ft | 294 kts | 242° |
| 2026-05-07 15:54 | 55.82126 | 12.07272 | 19579 ft | 295 kts | 242° |
| 2026-05-07 15:54 | 55.81129 | 12.04076 | 20093 ft | 296 kts | 242° |
| 2026-05-07 15:54 | 55.80123 | 12.00854 | 20553 ft | 300 kts | 242° |
| 2026-05-07 15:54 | 55.79107 | 11.97597 | 20991 ft | 303 kts | 242° |
| 2026-05-07 15:55 | 55.78080 | 11.94308 | 21450 ft | 305 kts | 242° |
| 2026-05-07 15:55 | 55.77051 | 11.91016 | 21915 ft | 307 kts | 242° |
| 2026-05-07 15:55 | 55.75999 | 11.87689 | 22375 ft | 310 kts | 242° |
| 2026-05-07 15:55 | 55.74948 | 11.84343 | 22888 ft | 312 kts | 242° |
| 2026-05-07 15:56 | 55.73891 | 11.80957 | 23304 ft | 316 kts | 242° |
| 2026-05-07 15:56 | 55.72825 | 11.77540 | 23665 ft | 318 kts | 242° |
| 2026-05-07 15:56 | 55.71773 | 11.74128 | 23902 ft | 322 kts | 240° |
| 2026-05-07 15:56 | 55.70642 | 11.70665 | 24257 ft | 326 kts | 241° |
| 2026-05-07 15:57 | 55.69579 | 11.67311 | 24645 ft | 326 kts | 242° |
| 2026-05-07 15:57 | 55.68471 | 11.63790 | 25008 ft | 328 kts | 242° |
| 2026-05-07 15:57 | 55.67358 | 11.60253 | 25330 ft | 330 kts | 242° |
| 2026-05-07 15:57 | 55.66249 | 11.56736 | 25645 ft | 332 kts | 242° |
| 2026-05-07 15:58 | 55.65115 | 11.53153 | 25960 ft | 334 kts | 242° |
| 2026-05-07 15:58 | 55.63974 | 11.49552 | 26283 ft | 337 kts | 242° |
| 2026-05-07 15:58 | 55.62830 | 11.45961 | 26585 ft | 339 kts | 242° |
| 2026-05-07 15:58 | 55.61667 | 11.42317 | 26889 ft | 341 kts | 242° |
| 2026-05-07 15:59 | 55.60621 | 11.38556 | 27167 ft | 342 kts | 251° |
| 2026-05-07 15:59 | 55.60039 | 11.34483 | 27470 ft | 342 kts | 263° |
| 2026-05-07 15:59 | 55.59899 | 11.30287 | 27751 ft | 343 kts | 273° |
| 2026-05-07 15:59 | 55.60054 | 11.26066 | 28027 ft | 345 kts | 275° |
| 2026-05-07 16:00 | 55.60269 | 11.21833 | 28284 ft | 347 kts | 276° |
| 2026-05-07 16:00 | 55.60497 | 11.17574 | 28567 ft | 348 kts | 276° |
| 2026-05-07 16:00 | 55.60720 | 11.13313 | 28853 ft | 350 kts | 276° |
| 2026-05-07 16:00 | 55.60938 | 11.09018 | 29105 ft | 352 kts | 276° |
| 2026-05-07 16:01 | 55.61146 | 11.04700 | 29332 ft | 353 kts | 275° |
| 2026-05-07 16:01 | 55.61350 | 11.00355 | 29575 ft | 356 kts | 275° |
| 2026-05-07 16:01 | 55.61551 | 10.95988 | 29814 ft | 357 kts | 275° |
| 2026-05-07 16:01 | 55.61750 | 10.91600 | 30047 ft | 358 kts | 275° |
| 2026-05-07 16:02 | 55.61947 | 10.87195 | 30249 ft | 360 kts | 275° |
| 2026-05-07 16:02 | 55.62142 | 10.82773 | 30432 ft | 362 kts | 275° |
| 2026-05-07 16:02 | 55.62336 | 10.78326 | 30629 ft | 363 kts | 275° |
| 2026-05-07 16:02 | 55.62529 | 10.73873 | 30817 ft | 364 kts | 275° |
| 2026-05-07 16:03 | 55.62722 | 10.69405 | 31002 ft | 365 kts | 275° |
| 2026-05-07 16:03 | 55.62913 | 10.64921 | 31178 ft | 366 kts | 275° |
| 2026-05-07 16:03 | 55.63102 | 10.60421 | 31348 ft | 367 kts | 275° |
| 2026-05-07 16:03 | 55.63291 | 10.55899 | 31517 ft | 369 kts | 275° |
| 2026-05-07 16:04 | 55.63478 | 10.51372 | 31683 ft | 370 kts | 275° |
| 2026-05-07 16:04 | 55.63664 | 10.46830 | 31834 ft | 371 kts | 275° |
| 2026-05-07 16:04 | 55.63850 | 10.42273 | 31991 ft | 372 kts | 275° |
| 2026-05-07 16:04 | 55.64035 | 10.37700 | 32151 ft | 373 kts | 275° |
| 2026-05-07 16:05 | 55.64219 | 10.33121 | 32302 ft | 374 kts | 275° |
| 2026-05-07 16:05 | 55.64401 | 10.28530 | 32443 ft | 374 kts | 275° |
| 2026-05-07 16:05 | 55.64582 | 10.23920 | 32573 ft | 376 kts | 275° |
| 2026-05-07 16:05 | 55.64761 | 10.19302 | 32712 ft | 377 kts | 275° |
| 2026-05-07 16:06 | 55.64939 | 10.14661 | 32857 ft | 378 kts | 275° |
| 2026-05-07 16:06 | 55.65116 | 10.10020 | 32998 ft | 379 kts | 275° |
| 2026-05-07 16:06 | 55.65291 | 10.05367 | 33153 ft | 379 kts | 275° |
| 2026-05-07 16:06 | 55.65466 | 10.00715 | 33286 ft | 379 kts | 275° |
| 2026-05-07 16:07 | 55.65639 | 9.96040 | 33401 ft | 380 kts | 275° |
| 2026-05-07 16:07 | 55.65828 | 9.91370 | 33527 ft | 381 kts | 278° |
| 2026-05-07 16:07 | 55.66261 | 9.86743 | 33629 ft | 381 kts | 283° |
| 2026-05-07 16:07 | 55.66793 | 9.82274 | 33743 ft | 381 kts | 284° |
| 2026-05-07 16:08 | 55.67367 | 9.77690 | 33852 ft | 382 kts | 284° |
| 2026-05-07 16:08 | 55.67942 | 9.73094 | 33957 ft | 382 kts | 284° |
| 2026-05-07 16:08 | 55.68510 | 9.68484 | 34050 ft | 383 kts | 284° |
| 2026-05-07 16:08 | 55.69068 | 9.63865 | 34151 ft | 384 kts | 284° |
| 2026-05-07 16:09 | 55.69612 | 9.59288 | 34246 ft | 385 kts | 283° |
| 2026-05-07 16:09 | 55.70701 | 9.49996 | 34431 ft | 385 kts | 283° |
| 2026-05-07 16:10 | 55.71778 | 9.40678 | 34592 ft | 386 kts | 283° |
| 2026-05-07 16:10 | 55.72851 | 9.31316 | 34731 ft | 388 kts | 283° |
| 2026-05-07 16:11 | 55.73921 | 9.21933 | 34896 ft | 388 kts | 282° |
| 2026-05-07 16:11 | 55.74986 | 9.12516 | 35035 ft | 390 kts | 282° |
| 2026-05-07 16:12 | 55.76047 | 9.03068 | 35188 ft | 390 kts | 282° |
| 2026-05-07 16:12 | 55.77099 | 8.93620 | 35408 ft | 388 kts | 282° |
| 2026-05-07 16:13 | 55.78131 | 8.84287 | 35505 ft | 390 kts | 282° |
| 2026-05-07 16:13 | 55.79172 | 8.74813 | 35583 ft | 392 kts | 282° |
| 2026-05-07 16:14 | 55.80208 | 8.65303 | 35728 ft | 391 kts | 282° |
| 2026-05-07 16:14 | 55.81234 | 8.55817 | 35903 ft | 390 kts | 282° |
| 2026-05-07 16:15 | 55.82255 | 8.46327 | 36020 ft | 390 kts | 281° |
| 2026-05-07 16:15 | 55.83261 | 8.36873 | 36113 ft | 389 kts | 281° |
| 2026-05-07 16:16 | 55.84256 | 8.27413 | 36125 ft | 389 kts | 280° |
| 2026-05-07 16:16 | 55.84926 | 8.17849 | 36120 ft | 390 kts | 276° |
| 2026-05-07 16:17 | 55.85509 | 8.08248 | 36124 ft | 390 kts | 277° |
| 2026-05-07 16:17 | 55.86627 | 7.98846 | 36123 ft | 390 kts | 297° |
| 2026-05-07 16:17 | 55.88107 | 7.94906 | 36125 ft | 390 kts | 312° |
| 2026-05-07 16:18 | 55.90151 | 7.91747 | 36151 ft | 389 kts | 323° |
| 2026-05-07 16:18 | 55.94577 | 7.86139 | 36134 ft | 391 kts | 324° |
| 2026-05-07 16:19 | 55.99029 | 7.80526 | 36124 ft | 392 kts | 324° |
| 2026-05-07 16:19 | 56.03458 | 7.74830 | 36125 ft | 392 kts | 323° |
| 2026-05-07 16:20 | 56.07875 | 7.69092 | 36131 ft | 393 kts | 323° |
| 2026-05-07 16:20 | 56.12296 | 7.63321 | 36125 ft | 393 kts | 323° |
| 2026-05-07 16:21 | 56.16720 | 7.57533 | 36126 ft | 394 kts | 323° |
| 2026-05-07 16:21 | 56.21085 | 7.51602 | 36110 ft | 393 kts | 313° |
| 2026-05-07 16:21 | 56.22610 | 7.47584 | 36139 ft | 390 kts | 292° |
| 2026-05-07 16:22 | 56.23366 | 7.42922 | 36131 ft | 389 kts | 277° |
| 2026-05-07 16:22 | 56.23361 | 7.38079 | 36142 ft | 388 kts | 264° |
| 2026-05-07 16:22 | 56.23068 | 7.33264 | 36129 ft | 388 kts | 263° |
| 2026-05-07 16:23 | 56.22364 | 7.23626 | 36127 ft | 389 kts | 262° |
| 2026-05-07 16:23 | 56.21663 | 7.13981 | 36127 ft | 390 kts | 263° |
| 2026-05-07 16:24 | 56.20987 | 7.04319 | 36128 ft | 390 kts | 263° |
| 2026-05-07 16:24 | 56.20318 | 6.94646 | 36128 ft | 391 kts | 263° |
| 2026-05-07 16:25 | 56.19644 | 6.84961 | 36135 ft | 391 kts | 263° |
| 2026-05-07 16:25 | 56.18965 | 6.75264 | 36127 ft | 391 kts | 263° |
| 2026-05-07 16:26 | 56.18276 | 6.65570 | 36128 ft | 392 kts | 262° |
| 2026-05-07 16:26 | 56.17575 | 6.55873 | 36128 ft | 392 kts | 262° |
| 2026-05-07 16:27 | 56.16873 | 6.46192 | 36129 ft | 391 kts | 262° |
| 2026-05-07 16:27 | 56.16286 | 6.38148 | 36130 ft | 392 kts | 262° |
| 2026-05-07 16:28 | 56.15569 | 6.28462 | 36127 ft | 392 kts | 262° |
| 2026-05-07 16:28 | 56.14841 | 6.18782 | 36125 ft | 391 kts | 262° |
| 2026-05-07 16:29 | 56.14107 | 6.09106 | 36125 ft | 392 kts | 262° |
| 2026-05-07 16:29 | 56.13366 | 5.99433 | 36127 ft | 392 kts | 262° |
| 2026-05-07 16:30 | 56.12618 | 5.89760 | 36129 ft | 392 kts | 262° |
| 2026-05-07 16:30 | 56.11862 | 5.80095 | 36131 ft | 392 kts | 262° |
| 2026-05-07 16:31 | 56.11098 | 5.70430 | 36132 ft | 392 kts | 261° |
| 2026-05-07 16:31 | 56.10327 | 5.60762 | 36131 ft | 392 kts | 261° |
| 2026-05-07 16:32 | 56.09552 | 5.51159 | 36127 ft | 392 kts | 261° |
| 2026-05-07 16:32 | 56.08765 | 5.41494 | 36128 ft | 392 kts | 261° |
| 2026-05-07 16:33 | 56.07971 | 5.31831 | 36130 ft | 392 kts | 261° |
| 2026-05-07 16:33 | 56.07169 | 5.22166 | 36124 ft | 393 kts | 261° |
| 2026-05-07 16:34 | 56.06359 | 5.12508 | 36131 ft | 392 kts | 261° |
| 2026-05-07 16:34 | 56.05543 | 5.02859 | 36127 ft | 392 kts | 261° |
| 2026-05-07 16:35 | 56.04716 | 4.93216 | 36123 ft | 392 kts | 261° |
| 2026-05-07 16:35 | 56.03879 | 4.83572 | 36126 ft | 392 kts | 260° |
| 2026-05-07 16:36 | 56.03036 | 4.73938 | 36126 ft | 392 kts | 260° |
| 2026-05-07 16:36 | 56.02186 | 4.64314 | 36122 ft | 392 kts | 260° |
| 2026-05-07 16:37 | 56.01329 | 4.54697 | 36129 ft | 392 kts | 260° |
| 2026-05-07 16:37 | 56.00465 | 4.45078 | 36133 ft | 392 kts | 260° |
| 2026-05-07 16:38 | 55.99594 | 4.35474 | 36123 ft | 392 kts | 260° |
| 2026-05-07 16:38 | 55.98716 | 4.25876 | 36123 ft | 392 kts | 259° |
| 2026-05-07 16:39 | 55.97830 | 4.16281 | 36123 ft | 391 kts | 259° |
| 2026-05-07 16:39 | 55.96944 | 4.06761 | 36125 ft | 391 kts | 259° |
| 2026-05-07 16:40 | 55.96045 | 3.97185 | 36123 ft | 391 kts | 259° |
| 2026-05-07 16:40 | 55.95138 | 3.87613 | 36125 ft | 391 kts | 259° |
| 2026-05-07 16:41 | 55.94223 | 3.78042 | 36119 ft | 391 kts | 259° |
| 2026-05-07 16:41 | 55.93301 | 3.68476 | 36125 ft | 391 kts | 259° |
| 2026-05-07 16:42 | 55.92375 | 3.58924 | 36129 ft | 391 kts | 259° |
| 2026-05-07 16:42 | 55.91463 | 3.49367 | 36115 ft | 391 kts | 262° |
| 2026-05-07 16:43 | 55.91167 | 3.39689 | 36127 ft | 392 kts | 267° |
| 2026-05-07 16:43 | 55.91013 | 3.29976 | 36116 ft | 392 kts | 266° |
| 2026-05-07 16:44 | 55.90823 | 3.20261 | 36116 ft | 392 kts | 266° |
| 2026-05-07 16:44 | 55.90598 | 3.10554 | 36120 ft | 392 kts | 266° |
| 2026-05-07 16:45 | 55.90361 | 3.00925 | 36102 ft | 392 kts | 266° |
| 2026-05-07 16:45 | 55.90113 | 2.91236 | 36104 ft | 391 kts | 266° |
| 2026-05-07 16:46 | 55.89858 | 2.81553 | 36126 ft | 391 kts | 265° |
| 2026-05-07 16:46 | 55.89595 | 2.71871 | 36101 ft | 391 kts | 265° |
| 2026-05-07 16:47 | 55.89326 | 2.62196 | 36102 ft | 391 kts | 265° |
| 2026-05-07 16:47 | 55.89048 | 2.52525 | 36101 ft | 391 kts | 265° |
| 2026-05-07 16:48 | 55.88765 | 2.42869 | 36093 ft | 390 kts | 265° |
| 2026-05-07 16:48 | 55.88623 | 2.33210 | 36097 ft | 390 kts | 270° |
| 2026-05-07 16:49 | 55.88842 | 2.23548 | 36102 ft | 391 kts | 270° |
| 2026-05-07 16:49 | 55.89091 | 2.13882 | 36090 ft | 391 kts | 270° |
| 2026-05-07 16:50 | 55.89315 | 2.04209 | 36087 ft | 390 kts | 270° |
| 2026-05-07 16:50 | 55.89514 | 1.94548 | 36088 ft | 390 kts | 270° |
| 2026-05-07 16:51 | 55.89702 | 1.84897 | 36083 ft | 390 kts | 270° |
| 2026-05-07 16:51 | 55.89880 | 1.75249 | 36077 ft | 390 kts | 270° |
| 2026-05-07 16:52 | 55.90050 | 1.65604 | 36090 ft | 390 kts | 269° |
| 2026-05-07 16:52 | 55.90213 | 1.55948 | 36072 ft | 390 kts | 269° |
| 2026-05-07 16:53 | 55.90368 | 1.46366 | 36072 ft | 389 kts | 269° |
| 2026-05-07 16:53 | 55.90517 | 1.36722 | 36072 ft | 389 kts | 269° |
| 2026-05-07 16:54 | 55.90657 | 1.27079 | 36066 ft | 389 kts | 269° |
| 2026-05-07 16:54 | 55.90790 | 1.17443 | 36068 ft | 389 kts | 269° |
| 2026-05-07 16:55 | 55.90915 | 1.07803 | 36068 ft | 389 kts | 269° |
| 2026-05-07 16:55 | 55.91033 | 0.98156 | 36057 ft | 389 kts | 269° |
| 2026-05-07 16:56 | 55.91143 | 0.88517 | 36056 ft | 389 kts | 268° |
| 2026-05-07 16:56 | 55.91296 | 0.74071 | 36052 ft | 388 kts | 268° |
| 2026-05-07 16:57 | 55.91387 | 0.64448 | 36050 ft | 388 kts | 268° |
| 2026-05-07 16:57 | 55.91471 | 0.54825 | 36060 ft | 388 kts | 268° |
| 2026-05-07 16:58 | 55.91547 | 0.45199 | 36044 ft | 388 kts | 268° |
| 2026-05-07 16:58 | 55.91582 | 0.40387 | 35928 ft | 390 kts | 268° |
| 2026-05-07 16:58 | 55.91617 | 0.35618 | 35813 ft | 375 kts | 268° |
| 2026-05-07 16:59 | 55.91651 | 0.31094 | 35478 ft | 360 kts | 268° |
| 2026-05-07 16:59 | 55.91679 | 0.26623 | 34913 ft | 357 kts | 267° |
| 2026-05-07 16:59 | 55.91705 | 0.22229 | 34478 ft | 352 kts | 267° |
| 2026-05-07 16:59 | 55.91728 | 0.17941 | 34162 ft | 351 kts | 267° |
| 2026-05-07 17:00 | 55.91748 | 0.13484 | 33788 ft | 360 kts | 266° |
| 2026-05-07 17:00 | 55.91765 | 0.08941 | 33411 ft | 374 kts | 266° |
| 2026-05-07 17:00 | 55.91782 | 0.04215 | 33016 ft | 388 kts | 267° |
| 2026-05-07 17:00 | 55.91799 | -0.00593 | 32617 ft | 395 kts | 267° |
| 2026-05-07 17:01 | 55.91819 | -0.05492 | 32192 ft | 385 kts | 267° |
| 2026-05-07 17:01 | 55.91839 | -0.10134 | 31818 ft | 375 kts | 267° |
| 2026-05-07 17:01 | 55.91856 | -0.14776 | 31069 ft | 376 kts | 266° |
| 2026-05-07 17:01 | 55.91867 | -0.19456 | 30299 ft | 378 kts | 267° |
| 2026-05-07 17:02 | 55.91878 | -0.24126 | 29667 ft | 374 kts | 267° |
| 2026-05-07 17:02 | 55.91886 | -0.28743 | 29091 ft | 372 kts | 267° |
| 2026-05-07 17:02 | 55.91892 | -0.33340 | 28690 ft | 368 kts | 267° |
| 2026-05-07 17:02 | 55.91897 | -0.37870 | 28336 ft | 363 kts | 266° |
| 2026-05-07 17:03 | 55.91900 | -0.42349 | 27940 ft | 359 kts | 266° |
| 2026-05-07 17:03 | 55.91903 | -0.46772 | 27440 ft | 355 kts | 266° |
| 2026-05-07 17:03 | 55.91903 | -0.51157 | 26809 ft | 352 kts | 266° |
| 2026-05-07 17:03 | 55.91916 | -0.55512 | 26198 ft | 351 kts | 267° |
| 2026-05-07 17:04 | 55.91932 | -0.59850 | 25608 ft | 348 kts | 266° |
| 2026-05-07 17:04 | 55.91920 | -0.64141 | 25095 ft | 344 kts | 266° |
| 2026-05-07 17:04 | 55.91906 | -0.68378 | 24554 ft | 340 kts | 266° |
| 2026-05-07 17:04 | 55.91892 | -0.72573 | 23997 ft | 337 kts | 266° |
| 2026-05-07 17:05 | 55.91880 | -0.76740 | 23419 ft | 335 kts | 266° |
| 2026-05-07 17:05 | 55.91868 | -0.80887 | 22975 ft | 334 kts | 266° |
| 2026-05-07 17:05 | 55.91856 | -0.85007 | 22568 ft | 331 kts | 266° |
| 2026-05-07 17:05 | 55.91843 | -0.89096 | 22188 ft | 329 kts | 266° |
| 2026-05-07 17:06 | 55.91830 | -0.93155 | 21828 ft | 325 kts | 266° |
| 2026-05-07 17:06 | 55.91818 | -0.97155 | 21466 ft | 320 kts | 265° |
| 2026-05-07 17:06 | 55.91804 | -1.01097 | 21125 ft | 318 kts | 266° |
| 2026-05-07 17:06 | 55.91783 | -1.05026 | 20779 ft | 316 kts | 265° |
| 2026-05-07 17:07 | 55.91765 | -1.08940 | 20432 ft | 315 kts | 266° |
| 2026-05-07 17:07 | 55.91746 | -1.12820 | 20090 ft | 312 kts | 266° |
| 2026-05-07 17:07 | 55.91727 | -1.16679 | 19765 ft | 311 kts | 265° |
| 2026-05-07 17:07 | 55.91704 | -1.20519 | 19423 ft | 309 kts | 265° |
| 2026-05-07 17:08 | 55.91683 | -1.24337 | 19086 ft | 307 kts | 265° |
| 2026-05-07 17:08 | 55.91661 | -1.28141 | 18753 ft | 306 kts | 265° |
| 2026-05-07 17:08 | 55.91637 | -1.31920 | 18418 ft | 305 kts | 265° |
| 2026-05-07 17:08 | 55.91612 | -1.35693 | 18015 ft | 304 kts | 265° |
| 2026-05-07 17:09 | 55.91586 | -1.39455 | 17658 ft | 303 kts | 265° |
| 2026-05-07 17:09 | 55.91560 | -1.43195 | 17303 ft | 300 kts | 265° |
| 2026-05-07 17:09 | 55.91532 | -1.46900 | 16981 ft | 297 kts | 265° |
| 2026-05-07 17:09 | 55.91505 | -1.50571 | 16653 ft | 295 kts | 265° |
| 2026-05-07 17:10 | 55.91476 | -1.54200 | 16346 ft | 292 kts | 265° |
| 2026-05-07 17:10 | 55.91445 | -1.57805 | 16027 ft | 290 kts | 265° |
| 2026-05-07 17:10 | 55.91414 | -1.61386 | 15719 ft | 287 kts | 265° |
| 2026-05-07 17:10 | 55.91303 | -1.64916 | 15383 ft | 282 kts | 254° |
| 2026-05-07 17:11 | 55.90492 | -1.67997 | 15104 ft | 273 kts | 230° |
| 2026-05-07 17:11 | 55.89076 | -1.70195 | 14815 ft | 271 kts | 210° |
| 2026-05-07 17:11 | 55.87323 | -1.71381 | 14519 ft | 271 kts | 193° |
| 2026-05-07 17:11 | 55.85437 | -1.71439 | 14208 ft | 275 kts | 176° |
| 2026-05-07 17:12 | 55.83554 | -1.70872 | 13893 ft | 274 kts | 173° |
| 2026-05-07 17:12 | 55.81679 | -1.70223 | 13557 ft | 274 kts | 173° |
| 2026-05-07 17:12 | 55.79839 | -1.69572 | 13221 ft | 273 kts | 173° |
| 2026-05-07 17:12 | 55.77980 | -1.68917 | 12895 ft | 272 kts | 173° |
| 2026-05-07 17:13 | 55.76128 | -1.68270 | 12551 ft | 270 kts | 173° |
| 2026-05-07 17:13 | 55.74291 | -1.67635 | 12259 ft | 268 kts | 173° |
| 2026-05-07 17:13 | 55.72464 | -1.67007 | 11956 ft | 267 kts | 173° |
| 2026-05-07 17:13 | 55.70650 | -1.66386 | 11643 ft | 265 kts | 173° |
| 2026-05-07 17:14 | 55.68841 | -1.65772 | 11352 ft | 264 kts | 173° |
| 2026-05-07 17:14 | 55.67038 | -1.65160 | 11048 ft | 263 kts | 173° |
| 2026-05-07 17:14 | 55.65243 | -1.64552 | 10752 ft | 262 kts | 174° |
| 2026-05-07 17:14 | 55.63460 | -1.63947 | 10454 ft | 261 kts | 174° |
| 2026-05-07 17:15 | 55.61680 | -1.63349 | 10174 ft | 259 kts | 174° |
| 2026-05-07 17:15 | 55.59932 | -1.62760 | 10070 ft | 254 kts | 174° |
| 2026-05-07 17:15 | 55.58184 | -1.62167 | 9846 ft | 259 kts | 174° |
| 2026-05-07 17:15 | 55.56388 | -1.61585 | 9550 ft | 267 kts | 175° |
| 2026-05-07 17:16 | 55.54561 | -1.60988 | 9259 ft | 266 kts | 172° |
| 2026-05-07 17:16 | 55.52758 | -1.60330 | 8954 ft | 264 kts | 173° |
| 2026-05-07 17:16 | 55.50964 | -1.59727 | 8654 ft | 261 kts | 174° |
| 2026-05-07 17:16 | 55.49182 | -1.59138 | 8381 ft | 259 kts | 174° |
| 2026-05-07 17:17 | 55.47418 | -1.58557 | 8100 ft | 257 kts | 173° |
| 2026-05-07 17:17 | 55.46255 | -1.58172 | 7922 ft | 256 kts | 174° |
| 2026-05-07 17:17 | 55.44514 | -1.57595 | 7639 ft | 254 kts | 174° |
| 2026-05-07 17:17 | 55.42782 | -1.57019 | 7362 ft | 252 kts | 173° |
| 2026-05-07 17:18 | 55.41063 | -1.56448 | 7091 ft | 250 kts | 174° |
| 2026-05-07 17:18 | 55.39358 | -1.55882 | 6822 ft | 248 kts | 174° |
| 2026-05-07 17:18 | 55.37667 | -1.55320 | 6562 ft | 247 kts | 174° |
| 2026-05-07 17:18 | 55.35984 | -1.54763 | 6278 ft | 245 kts | 174° |
| 2026-05-07 17:19 | 55.34315 | -1.54209 | 5999 ft | 243 kts | 174° |
| 2026-05-07 17:19 | 55.32656 | -1.53661 | 5712 ft | 242 kts | 173° |
| 2026-05-07 17:19 | 55.31003 | -1.53113 | 5440 ft | 241 kts | 173° |
| 2026-05-07 17:19 | 55.29359 | -1.52568 | 5173 ft | 239 kts | 174° |
| 2026-05-07 17:20 | 55.27730 | -1.52029 | 4934 ft | 237 kts | 174° |
| 2026-05-07 17:20 | 55.26139 | -1.51502 | 4824 ft | 229 kts | 174° |
| 2026-05-07 17:20 | 55.24606 | -1.50998 | 4698 ft | 219 kts | 173° |
| 2026-05-07 17:20 | 55.23151 | -1.50515 | 4602 ft | 207 kts | 173° |
| 2026-05-07 17:21 | 55.21766 | -1.50058 | 4525 ft | 201 kts | 173° |
| 2026-05-07 17:21 | 55.20439 | -1.49617 | 4488 ft | 188 kts | 173° |
| 2026-05-07 17:21 | 55.19208 | -1.49214 | 4393 ft | 179 kts | 173° |
| 2026-05-07 17:21 | 55.18002 | -1.48762 | 4244 ft | 179 kts | 163° |
| 2026-05-07 17:22 | 55.16856 | -1.47888 | 4098 ft | 181 kts | 159° |
| 2026-05-07 17:22 | 55.15702 | -1.46932 | 3903 ft | 185 kts | 159° |
| 2026-05-07 17:22 | 55.14544 | -1.45983 | 3704 ft | 181 kts | 159° |
| 2026-05-07 17:22 | 55.13426 | -1.45070 | 3508 ft | 173 kts | 159° |
| 2026-05-07 17:23 | 55.12358 | -1.44202 | 3306 ft | 165 kts | 160° |
| 2026-05-07 17:23 | 55.11315 | -1.43730 | 3193 ft | 146 kts | 195° |
| 2026-05-07 17:23 | 55.10539 | -1.44806 | 3168 ft | 154 kts | 237° |
| 2026-05-07 17:23 | 55.09983 | -1.46449 | 2954 ft | 158 kts | 235° |
| 2026-05-07 17:24 | 55.09422 | -1.48062 | 2758 ft | 153 kts | 237° |
| 2026-05-07 17:24 | 55.08937 | -1.49685 | 2544 ft | 147 kts | 239° |
| 2026-05-07 17:24 | 55.08510 | -1.51242 | 2336 ft | 138 kts | 239° |
| 2026-05-07 17:24 | 55.08098 | -1.52774 | 2166 ft | 142 kts | 239° |
| 2026-05-07 17:25 | 55.07678 | -1.54347 | 1975 ft | 143 kts | 240° |
| 2026-05-07 17:25 | 55.07267 | -1.55898 | 1797 ft | 137 kts | 239° |
| 2026-05-07 17:25 | 55.06881 | -1.57350 | 1619 ft | 131 kts | 238° |
| 2026-05-07 17:25 | 55.06490 | -1.58815 | 1413 ft | 133 kts | 238° |
| 2026-05-07 17:26 | 55.06116 | -1.60288 | 1243 ft | 133 kts | 239° |
| 2026-05-07 17:26 | 55.05734 | -1.61734 | 1068 ft | 131 kts | 237° |
| 2026-05-07 17:26 | 55.05337 | -1.63172 | 859 ft | 132 kts | 237° |
| 2026-05-07 17:26 | 55.04945 | -1.64604 | 679 ft | 130 kts | 239° |
| 2026-05-07 17:27 | 55.04565 | -1.66047 | 469 ft | 130 kts | 243° |
| 2026-05-07 17:27 | 55.04200 | -1.67447 | 294 ft | 125 kts | 242° |
| 2026-05-07 17:27 | 55.03868 | -1.68694 | 249 ft | 92 kts | 244° |
| 2026-05-07 17:27 | 55.03657 | -1.69486 | 256 ft | 64 kts | 245° |
| 2026-05-07 17:28 | 55.03583 | -1.69927 | 260 ft | 26 kts | 274° |
| 2026-05-07 17:28 | 55.03593 | -1.70166 | 263 ft | 12 kts | 274° |
| 2026-05-07 17:28 | 55.03600 | -1.70315 | 265 ft | 12 kts | 275° |
| 2026-05-07 17:28 | 55.03600 | -1.70460 | 266 ft | 12 kts | 264° |
| 2026-05-07 17:29 | 55.03590 | -1.70600 | 266 ft | 11 kts | 266° |
| 2026-05-07 17:29 | 55.03594 | -1.70689 | 266 ft | 1 kts | 278° |
| 2026-05-07 17:29 | 55.03598 | -1.70703 | 266 ft | 2 kts | 303° |
| 2026-05-07 17:29 | 55.03622 | -1.70714 | 266 ft | 7 kts | 357° |
| 2026-05-07 17:30 | 55.03654 | -1.70712 | 266 ft | 2 kts | 4° |
| 2026-05-07 17:30 | 55.03656 | -1.70711 | 266 ft | 0 kts | 4° |